sensor_id;sensor_type;location;lat;lon;timestamp;pressure;altitude;pressure_sealevel;temperature;humidity
68508;BME280;55510;49.560;19.090;2023-02-08T00:02:35;98719.19;;;-5.83;96.33
68508;BME280;55510;49.560;19.090;2023-02-08T00:05:37;98725.47;;;-5.87;96.13
68508;BME280;55510;49.560;19.090;2023-02-08T00:08:38;98737.69;;;-5.89;95.57
68508;BME280;55510;49.560;19.090;2023-02-08T00:11:39;98730.75;;;-5.89;95.99
68508;BME280;55510;49.560;19.090;2023-02-08T00:14:40;98727.16;;;-5.86;96.53
68508;BME280;55510;49.560;19.090;2023-02-08T00:17:40;98721.97;;;-5.86;96.12
68508;BME280;55510;49.560;19.090;2023-02-08T00:20:42;98726.16;;;-5.84;96.30
68508;BME280;55510;49.560;19.090;2023-02-08T00:23:44;98723.47;;;-5.82;96.64
68508;BME280;55510;49.560;19.090;2023-02-08T00:26:44;98721.72;;;-5.82;96.15
68508;BME280;55510;49.560;19.090;2023-02-08T00:29:45;98721.72;;;-5.82;96.06
68508;BME280;55510;49.560;19.090;2023-02-08T00:32:46;98723.31;;;-5.79;96.22
68508;BME280;55510;49.560;19.090;2023-02-08T00:35:46;98719.97;;;-5.81;96.21
68508;BME280;55510;49.560;19.090;2023-02-08T00:38:47;98714.78;;;-5.81;95.93
68508;BME280;55510;49.560;19.090;2023-02-08T00:41:48;98719.78;;;-5.78;96.22
68508;BME280;55510;49.560;19.090;2023-02-08T00:44:49;98718.13;;;-5.79;95.81
68508;BME280;55510;49.560;19.090;2023-02-08T00:47:49;98718.28;;;-5.82;95.87
68508;BME280;55510;49.560;19.090;2023-02-08T00:51:02;98719.13;;;-5.82;96.13
68508;BME280;55510;49.560;19.090;2023-02-08T00:54:03;98714.78;;;-5.81;96.45
68508;BME280;55510;49.560;19.090;2023-02-08T00:57:04;98721.63;;;-5.80;96.22
68508;BME280;55510;49.560;19.090;2023-02-08T01:00:05;98718.28;;;-5.82;95.99
68508;BME280;55510;49.560;19.090;2023-02-08T01:03:06;98719.19;;;-5.83;95.85
68508;BME280;55510;49.560;19.090;2023-02-08T01:06:09;98715.78;;;-5.84;96.03
68508;BME280;55510;49.560;19.090;2023-02-08T01:09:10;98721.97;;;-5.86;95.99
68508;BME280;55510;49.560;19.090;2023-02-08T01:12:10;98721.22;;;-5.88;96.19
68508;BME280;55510;49.560;19.090;2023-02-08T01:15:11;98715.09;;;-5.87;96.58
68508;BME280;55510;49.560;19.090;2023-02-08T01:18:12;98714.28;;;-5.88;96.03
68508;BME280;55510;49.560;19.090;2023-02-08T01:21:18;98712.59;;;-5.89;95.87
68508;BME280;55510;49.560;19.090;2023-02-08T01:24:19;98704.72;;;-5.87;96.74
68508;BME280;55510;49.560;19.090;2023-02-08T01:27:20;98702.13;;;-5.87;96.51
68508;BME280;55510;49.560;19.090;2023-02-08T01:30:22;98707.25;;;-5.86;96.44
68508;BME280;55510;49.560;19.090;2023-02-08T01:33:24;98710.59;;;-5.84;96.87
68508;BME280;55510;49.560;19.090;2023-02-08T01:36:25;98713.25;;;-5.85;96.45
68508;BME280;55510;49.560;19.090;2023-02-08T01:39:27;98733.09;;;-5.84;96.46
68508;BME280;55510;49.560;19.090;2023-02-08T01:42:27;98719.19;;;-5.83;96.53
68508;BME280;55510;49.560;19.090;2023-02-08T01:45:30;98726.97;;;-5.83;96.78
68508;BME280;55510;49.560;19.090;2023-02-08T01:48:35;98724.31;;;-5.82;96.63
68508;BME280;55510;49.560;19.090;2023-02-08T01:51:45;98722.66;;;-5.83;96.46
68508;BME280;55510;49.560;19.090;2023-02-08T01:54:50;98720.88;;;-5.82;96.51
68508;BME280;55510;49.560;19.090;2023-02-08T01:57:54;98728.66;;;-5.82;96.89
68508;BME280;55510;49.560;19.090;2023-02-08T02:00:57;98719.13;;;-5.82;96.95
68508;BME280;55510;49.560;19.090;2023-02-08T02:04:04;98715.69;;;-5.82;96.58
68508;BME280;55510;49.560;19.090;2023-02-08T02:07:06;98710.59;;;-5.84;96.75
68508;BME280;55510;49.560;19.090;2023-02-08T02:10:17;98714.94;;;-5.84;96.37
68508;BME280;55510;49.560;19.090;2023-02-08T02:13:22;98717.53;;;-5.84;96.54
68508;BME280;55510;49.560;19.090;2023-02-08T02:16:23;98718.44;;;-5.85;96.41
68508;BME280;55510;49.560;19.090;2023-02-08T02:35:45;98721.72;;;-5.82;96.88
68508;BME280;55510;49.560;19.090;2023-02-08T02:39:01;98732.94;;;-5.81;96.94
68508;BME280;55510;49.560;19.090;2023-02-08T02:45:45;98719.88;;;-5.79;96.76
68508;BME280;55510;49.560;19.090;2023-02-08T02:51:57;98720.06;;;-5.83;96.85
68508;BME280;55510;49.560;19.090;2023-02-08T02:55:06;98714.78;;;-5.81;96.90
68508;BME280;55510;49.560;19.090;2023-02-08T02:58:10;98725.91;;;-5.79;96.85
68508;BME280;55510;49.560;19.090;2023-02-08T03:01:13;98718.97;;;-5.78;96.77
68508;BME280;55510;49.560;19.090;2023-02-08T03:11:33;98728.31;;;-5.76;96.24
68508;BME280;55510;49.560;19.090;2023-02-08T03:24:44;98734.38;;;-5.75;96.43
68508;BME280;55510;49.560;19.090;2023-02-08T03:31:31;98744.56;;;-5.72;96.54
68508;BME280;55510;49.560;19.090;2023-02-08T03:34:57;98749.75;;;-5.72;96.17
68508;BME280;55510;49.560;19.090;2023-02-08T03:38:03;98748.94;;;-5.73;96.07
68508;BME280;55510;49.560;19.090;2023-02-08T03:41:08;98749.75;;;-5.72;96.52
68508;BME280;55510;49.560;19.090;2023-02-08T03:44:13;98755.81;;;-5.72;96.82
68508;BME280;55510;49.560;19.090;2023-02-08T03:47:19;98752.28;;;-5.71;96.29
68508;BME280;55510;49.560;19.090;2023-02-08T03:50:22;98755.81;;;-5.72;96.54
68508;BME280;55510;49.560;19.090;2023-02-08T03:53:25;98746.41;;;-5.74;96.39
68508;BME280;55510;49.560;19.090;2023-02-08T03:56:37;98753.44;;;-5.76;96.33
68508;BME280;55510;49.560;19.090;2023-02-08T03:59:42;98754.25;;;-5.76;96.47
68508;BME280;55510;49.560;19.090;2023-02-08T04:02:56;98750.09;;;-5.78;96.63
68508;BME280;55510;49.560;19.090;2023-02-08T04:05:58;98754.44;;;-5.79;96.71
68508;BME280;55510;49.560;19.090;2023-02-08T04:08:59;98751.94;;;-5.80;96.43
68508;BME280;55510;49.560;19.090;2023-02-08T04:12:00;98752.59;;;-5.77;96.77
68508;BME280;55510;49.560;19.090;2023-02-08T04:15:01;98747.41;;;-5.77;96.68
68508;BME280;55510;49.560;19.090;2023-02-08T04:18:02;98746.47;;;-5.76;96.86
68508;BME280;55510;49.560;19.090;2023-02-08T04:21:03;98749.06;;;-5.76;96.45
68508;BME280;55510;49.560;19.090;2023-02-08T04:24:04;98745.50;;;-5.73;96.39
68508;BME280;55510;49.560;19.090;2023-02-08T04:27:04;98750.63;;;-5.72;96.52
68508;BME280;55510;49.560;19.090;2023-02-08T04:30:06;98760.13;;;-5.72;96.46
68508;BME280;55510;49.560;19.090;2023-02-08T04:33:06;98747.94;;;-5.70;96.67
68508;BME280;55510;49.560;19.090;2023-02-08T04:36:07;98756.47;;;-5.68;96.00
68508;BME280;55510;49.560;19.090;2023-02-08T04:39:08;98759.97;;;-5.69;96.01
68508;BME280;55510;49.560;19.090;2023-02-08T04:42:09;98756.47;;;-5.68;96.00
68508;BME280;55510;49.560;19.090;2023-02-08T04:45:10;98759.00;;;-5.66;96.44
68508;BME280;55510;49.560;19.090;2023-02-08T04:48:11;98761.47;;;-5.65;96.59
68508;BME280;55510;49.560;19.090;2023-02-08T04:51:11;98762.06;;;-5.60;96.44
68508;BME280;55510;49.560;19.090;2023-02-08T04:54:12;98755.22;;;-5.61;96.44
68508;BME280;55510;49.560;19.090;2023-02-08T04:57:13;98766.84;;;-5.68;96.16
68508;BME280;55510;49.560;19.090;2023-02-08T05:00:15;98765.31;;;-5.72;96.33
68508;BME280;55510;49.560;19.090;2023-02-08T05:03:15;98745.44;;;-5.72;96.71
68508;BME280;55510;49.560;19.090;2023-02-08T05:06:16;98756.97;;;-5.77;96.51
68508;BME280;55510;49.560;19.090;2023-02-08T05:09:17;98759.44;;;-5.76;96.58
68508;BME280;55510;49.560;19.090;2023-02-08T05:12:17;98760.25;;;-5.74;96.61
68508;BME280;55510;49.560;19.090;2023-02-08T05:15:18;98761.91;;;-5.73;96.65
68508;BME280;55510;49.560;19.090;2023-02-08T05:18:19;98763.72;;;-5.75;96.39
68508;BME280;55510;49.560;19.090;2023-02-08T05:21:20;98762.97;;;-5.77;96.73
68508;BME280;55510;49.560;19.090;2023-02-08T05:24:23;98761.06;;;-5.73;96.65
68508;BME280;55510;49.560;19.090;2023-02-08T05:27:24;98775.69;;;-5.72;96.50
68508;BME280;55510;49.560;19.090;2023-02-08T05:30:25;98775.69;;;-5.72;96.36
68508;BME280;55510;49.560;19.090;2023-02-08T05:33:25;98773.78;;;-5.69;97.23
68508;BME280;55510;49.560;19.090;2023-02-08T05:36:27;98770.13;;;-5.64;97.27
68508;BME280;55510;49.560;19.090;2023-02-08T05:39:27;98777.16;;;-5.66;96.27
68508;BME280;55510;49.560;19.090;2023-02-08T05:42:28;98781.75;;;-5.72;96.44
68508;BME280;55510;49.560;19.090;2023-02-08T05:45:29;98775.94;;;-5.77;96.28
68508;BME280;55510;49.560;19.090;2023-02-08T05:48:31;98772.84;;;-5.84;96.33
68508;BME280;55510;49.560;19.090;2023-02-08T05:51:31;98776.59;;;-5.89;96.16
68508;BME280;55510;49.560;19.090;2023-02-08T05:54:32;98775.06;;;-5.93;96.10
68508;BME280;55510;49.560;19.090;2023-02-08T05:57:33;98785.03;;;-6.02;95.71
68508;BME280;55510;49.560;19.090;2023-02-08T06:00:33;98785.38;;;-6.08;96.63
68508;BME280;55510;49.560;19.090;2023-02-08T06:03:34;98791.78;;;-6.15;96.39
68508;BME280;55510;49.560;19.090;2023-02-08T06:06:35;98777.44;;;-6.22;96.22
68508;BME280;55510;49.560;19.090;2023-02-08T06:09:36;98798.31;;;-6.26;96.43
68508;BME280;55510;49.560;19.090;2023-02-08T06:12:37;98812.34;;;-6.30;96.63
68508;BME280;55510;49.560;19.090;2023-02-08T06:15:38;98805.97;;;-6.40;95.93
68508;BME280;55510;49.560;19.090;2023-02-08T06:18:38;98815.72;;;-6.45;96.29
68508;BME280;55510;49.560;19.090;2023-02-08T06:21:39;98804.91;;;-6.53;95.80
68508;BME280;55510;49.560;19.090;2023-02-08T06:24:40;98812.22;;;-6.62;95.52
68508;BME280;55510;49.560;19.090;2023-02-08T06:27:41;98820.09;;;-6.65;94.89
68508;BME280;55510;49.560;19.090;2023-02-08T06:30:42;98818.53;;;-6.67;95.50
68508;BME280;55510;49.560;19.090;2023-02-08T06:33:42;98820.50;;;-6.73;95.82
68508;BME280;55510;49.560;19.090;2023-02-08T06:36:43;98825.97;;;-6.79;95.53
68508;BME280;55510;49.560;19.090;2023-02-08T06:39:45;98828.06;;;-6.87;95.49
68508;BME280;55510;49.560;19.090;2023-02-08T06:42:46;98837.34;;;-7.01;94.66
68508;BME280;55510;49.560;19.090;2023-02-08T06:45:47;98844.63;;;-7.09;95.25
68508;BME280;55510;49.560;19.090;2023-02-08T06:48:48;98839.44;;;-7.28;93.72
68508;BME280;55510;49.560;19.090;2023-02-08T06:51:48;98849.09;;;-7.32;94.31
68508;BME280;55510;49.560;19.090;2023-02-08T06:54:49;98847.97;;;-7.45;93.62
68508;BME280;55510;49.560;19.090;2023-02-08T06:57:53;98839.63;;;-7.71;92.73
68508;BME280;55510;49.560;19.090;2023-02-08T07:00:54;98847.22;;;-7.87;92.55
68508;BME280;55510;49.560;19.090;2023-02-08T07:03:55;98857.09;;;-7.97;92.91
68508;BME280;55510;49.560;19.090;2023-02-08T07:06:55;98862.47;;;-8.02;93.98
68508;BME280;55510;49.560;19.090;2023-02-08T07:09:56;98866.41;;;-8.13;92.41
68508;BME280;55510;49.560;19.090;2023-02-08T07:12:57;98862.97;;;-8.35;91.20
68508;BME280;55510;49.560;19.090;2023-02-08T07:15:58;98870.00;;;-8.59;91.96
68508;BME280;55510;49.560;19.090;2023-02-08T07:18:59;98873.41;;;-8.58;92.65
68508;BME280;55510;49.560;19.090;2023-02-08T07:22:00;98874.97;;;-8.54;92.76
68508;BME280;55510;49.560;19.090;2023-02-08T07:25:09;98884.53;;;-8.56;91.40
68508;BME280;55510;49.560;19.090;2023-02-08T07:28:10;98889.16;;;-8.44;92.52
68508;BME280;55510;49.560;19.090;2023-02-08T07:31:13;98887.69;;;-8.29;92.40
68508;BME280;55510;49.560;19.090;2023-02-08T07:34:17;98886.06;;;-8.09;91.39
68508;BME280;55510;49.560;19.090;2023-02-08T07:37:21;98883.59;;;-7.71;91.94
68508;BME280;55510;49.560;19.090;2023-02-08T07:40:22;98880.53;;;-7.60;88.69
68508;BME280;55510;49.560;19.090;2023-02-08T07:43:22;98865.31;;;-7.28;90.21
68508;BME280;55510;49.560;19.090;2023-02-08T07:46:23;98860.59;;;-5.08;86.10
68508;BME280;55510;49.560;19.090;2023-02-08T07:49:24;98878.75;;;-4.14;78.38
68508;BME280;55510;49.560;19.090;2023-02-08T07:52:24;98871.59;;;-2.38;75.31
68508;BME280;55510;49.560;19.090;2023-02-08T07:55:25;98882.06;;;-0.58;71.16
68508;BME280;55510;49.560;19.090;2023-02-08T07:58:27;98877.44;;;0.06;67.25
68508;BME280;55510;49.560;19.090;2023-02-08T08:01:28;98873.94;;;1.65;61.67
68508;BME280;55510;49.560;19.090;2023-02-08T08:04:28;98862.13;;;3.37;57.56
68508;BME280;55510;49.560;19.090;2023-02-08T08:07:29;98877.66;;;3.99;55.23
68508;BME280;55510;49.560;19.090;2023-02-08T08:10:30;98886.75;;;3.26;55.18
68508;BME280;55510;49.560;19.090;2023-02-08T08:13:31;98893.22;;;1.86;56.70
68508;BME280;55510;49.560;19.090;2023-02-08T08:16:31;98886.34;;;0.39;57.85
68508;BME280;55510;49.560;19.090;2023-02-08T08:19:32;98900.38;;;-0.58;61.03
68508;BME280;55510;49.560;19.090;2023-02-08T08:22:33;98899.78;;;-1.25;63.93
68508;BME280;55510;49.560;19.090;2023-02-08T08:25:34;98902.72;;;-1.55;65.83
68508;BME280;55510;49.560;19.090;2023-02-08T08:28:36;98903.97;;;-1.74;66.20
68508;BME280;55510;49.560;19.090;2023-02-08T08:31:37;98901.75;;;-1.93;66.97
68508;BME280;55510;49.560;19.090;2023-02-08T08:34:38;98905.13;;;-2.19;66.39
68508;BME280;55510;49.560;19.090;2023-02-08T08:37:39;98912.66;;;-1.61;67.74
68508;BME280;55510;49.560;19.090;2023-02-08T08:40:39;98917.03;;;-0.35;66.27
68508;BME280;55510;49.560;19.090;2023-02-08T08:43:40;98922.97;;;1.76;57.57
68508;BME280;55510;49.560;19.090;2023-02-08T08:46:41;98921.75;;;4.27;51.87
68508;BME280;55510;49.560;19.090;2023-02-08T08:49:44;98920.13;;;7.19;45.78
68508;BME280;55510;49.560;19.090;2023-02-08T08:52:44;98915.22;;;9.86;41.93
68508;BME280;55510;49.560;19.090;2023-02-08T08:55:45;98928.88;;;10.06;39.17
68508;BME280;55510;49.560;19.090;2023-02-08T08:58:46;98936.59;;;12.04;36.72
68508;BME280;55510;49.560;19.090;2023-02-08T09:01:47;98932.22;;;11.15;34.99
68508;BME280;55510;49.560;19.090;2023-02-08T09:04:48;98943.22;;;8.11;37.58
68508;BME280;55510;49.560;19.090;2023-02-08T09:07:49;98933.59;;;5.46;42.16
68508;BME280;55510;49.560;19.090;2023-02-08T09:10:50;98934.09;;;3.77;47.74
68508;BME280;55510;49.560;19.090;2023-02-08T09:13:51;98937.91;;;3.43;49.34
68508;BME280;55510;49.560;19.090;2023-02-08T09:16:54;98939.91;;;3.71;49.11
68508;BME280;55510;49.560;19.090;2023-02-08T09:19:55;98932.72;;;6.01;47.22
68508;BME280;55510;49.560;19.090;2023-02-08T09:22:56;98935.50;;;6.89;43.13
68508;BME280;55510;49.560;19.090;2023-02-08T09:25:56;98941.31;;;5.29;44.75
68508;BME280;55510;49.560;19.090;2023-02-08T09:28:57;98937.56;;;4.37;45.96
68508;BME280;55510;49.560;19.090;2023-02-08T09:31:58;98950.94;;;5.30;45.00
68508;BME280;55510;49.560;19.090;2023-02-08T09:34:59;98949.97;;;6.68;43.66
68508;BME280;55510;49.560;19.090;2023-02-08T09:38:02;98961.97;;;8.84;39.04
68508;BME280;55510;49.560;19.090;2023-02-08T09:47:53;98948.53;;;14.27;29.32
68508;BME280;55510;49.560;19.090;2023-02-08T09:51:06;98959.81;;;15.89;27.56
68508;BME280;55510;49.560;19.090;2023-02-08T09:54:36;98947.97;;;14.58;27.82
68508;BME280;55510;49.560;19.090;2023-02-08T09:57:39;98946.88;;;15.13;27.18
68508;BME280;55510;49.560;19.090;2023-02-08T10:00:43;98947.28;;;13.47;28.19
68508;BME280;55510;49.560;19.090;2023-02-08T10:03:45;98953.75;;;12.39;27.39
68508;BME280;55510;49.560;19.090;2023-02-08T10:06:47;98950.91;;;12.18;30.10
68508;BME280;55510;49.560;19.090;2023-02-08T10:09:48;98953.50;;;13.61;28.20
68508;BME280;55510;49.560;19.090;2023-02-08T10:19:41;98949.97;;;10.54;32.00
68508;BME280;55510;49.560;19.090;2023-02-08T10:23:13;98944.16;;;11.34;29.76
68508;BME280;55510;49.560;19.090;2023-02-08T10:26:27;98948.25;;;9.92;31.10
68508;BME280;55510;49.560;19.090;2023-02-08T10:33:00;98944.41;;;8.66;34.17
68508;BME280;55510;49.560;19.090;2023-02-08T10:36:02;98937.25;;;8.67;35.11
68508;BME280;55510;49.560;19.090;2023-02-08T10:39:17;98936.59;;;8.48;34.56
68508;BME280;55510;49.560;19.090;2023-02-08T10:42:21;98941.16;;;9.04;33.05
68508;BME280;55510;49.560;19.090;2023-02-08T10:45:28;98935.53;;;7.83;34.41
68508;BME280;55510;49.560;19.090;2023-02-08T10:51:48;98934.13;;;8.55;35.09
68508;BME280;55510;49.560;19.090;2023-02-08T10:54:49;98932.56;;;9.42;33.11
68508;BME280;55510;49.560;19.090;2023-02-08T10:57:54;98925.38;;;9.11;33.74
68508;BME280;55510;49.560;19.090;2023-02-08T11:00:56;98930.06;;;11.92;30.86
68508;BME280;55510;49.560;19.090;2023-02-08T11:04:07;98926.88;;;13.04;28.12
68508;BME280;55510;49.560;19.090;2023-02-08T11:07:19;98925.25;;;15.08;26.66
68508;BME280;55510;49.560;19.090;2023-02-08T11:10:24;98921.50;;;16.39;24.73
68508;BME280;55510;49.560;19.090;2023-02-08T11:13:40;98921.72;;;17.07;23.15
68508;BME280;55510;49.560;19.090;2023-02-08T11:16:48;98919.75;;;15.94;22.70
68508;BME280;55510;49.560;19.090;2023-02-08T11:19:49;98921.56;;;17.20;23.58
68508;BME280;55510;49.560;19.090;2023-02-08T11:22:50;98919.84;;;17.26;22.95
68508;BME280;55510;49.560;19.090;2023-02-08T11:25:51;98912.28;;;18.03;22.31
68508;BME280;55510;49.560;19.090;2023-02-08T11:29:13;98914.41;;;17.14;21.55
68508;BME280;55510;49.560;19.090;2023-02-08T11:32:18;98903.97;;;16.80;22.94
68508;BME280;55510;49.560;19.090;2023-02-08T11:35:24;98911.19;;;16.36;23.45
68508;BME280;55510;49.560;19.090;2023-02-08T11:38:26;98907.16;;;16.20;23.33
68508;BME280;55510;49.560;19.090;2023-02-08T11:41:27;98901.34;;;16.48;23.86
68508;BME280;55510;49.560;19.090;2023-02-08T11:44:32;98905.25;;;15.56;24.24
68508;BME280;55510;49.560;19.090;2023-02-08T11:47:34;98903.50;;;16.14;23.77
68508;BME280;55510;49.560;19.090;2023-02-08T11:50:37;98900.19;;;17.44;23.67
68508;BME280;55510;49.560;19.090;2023-02-08T11:53:39;98901.03;;;18.06;22.08
68508;BME280;55510;49.560;19.090;2023-02-08T11:56:42;98904.03;;;18.76;21.40
68508;BME280;55510;49.560;19.090;2023-02-08T11:59:42;98888.38;;;19.37;20.42
68508;BME280;55510;49.560;19.090;2023-02-08T12:02:43;98889.56;;;19.30;19.75
68508;BME280;55510;49.560;19.090;2023-02-08T12:12:15;98896.44;;;19.78;19.15
68508;BME280;55510;49.560;19.090;2023-02-08T12:15:32;98878.59;;;18.48;20.61
68508;BME280;55510;49.560;19.090;2023-02-08T12:21:55;98878.31;;;17.71;21.81
68508;BME280;55510;49.560;19.090;2023-02-08T12:28:45;98883.00;;;19.83;20.07
68508;BME280;55510;49.560;19.090;2023-02-08T12:38:27;98869.22;;;21.27;17.74
68508;BME280;55510;49.560;19.090;2023-02-08T12:55:38;98846.28;;;16.32;22.63
68508;BME280;55510;49.560;19.090;2023-02-08T12:58:47;98844.69;;;14.49;24.59
68508;BME280;55510;49.560;19.090;2023-02-08T13:01:53;98848.63;;;13.99;25.38
68508;BME280;55510;49.560;19.090;2023-02-08T13:04:59;98844.41;;;13.49;25.60
68508;BME280;55510;49.560;19.090;2023-02-08T13:08:25;98850.06;;;12.77;27.04
68508;BME280;55510;49.560;19.090;2023-02-08T13:11:40;98846.00;;;11.38;28.73
68508;BME280;55510;49.560;19.090;2023-02-08T13:14:49;98835.13;;;9.81;31.94
68508;BME280;55510;49.560;19.090;2023-02-08T13:18:00;98833.47;;;9.25;33.35
68508;BME280;55510;49.560;19.090;2023-02-08T13:21:06;98837.75;;;8.46;34.38
68508;BME280;55510;49.560;19.090;2023-02-08T13:24:33;98837.41;;;7.50;34.85
68508;BME280;55510;49.560;19.090;2023-02-08T13:27:34;98830.28;;;6.82;36.86
68508;BME280;55510;49.560;19.090;2023-02-08T13:30:36;98821.69;;;6.89;37.85
68508;BME280;55510;49.560;19.090;2023-02-08T13:37:36;98820.69;;;6.90;38.40
68508;BME280;55510;49.560;19.090;2023-02-08T13:40:37;98818.63;;;6.67;38.15
68508;BME280;55510;49.560;19.090;2023-02-08T13:43:46;98817.53;;;6.51;39.34
68508;BME280;55510;49.560;19.090;2023-02-08T13:46:49;98808.78;;;6.51;39.25
68508;BME280;55510;49.560;19.090;2023-02-08T13:49:59;98816.25;;;6.56;39.09
68508;BME280;55510;49.560;19.090;2023-02-08T13:53:04;98811.41;;;5.98;39.26
68508;BME280;55510;49.560;19.090;2023-02-08T13:56:08;98820.09;;;5.90;40.10
68508;BME280;55510;49.560;19.090;2023-02-08T13:59:23;98814.59;;;5.84;40.38
68508;BME280;55510;49.560;19.090;2023-02-08T14:02:25;98812.50;;;5.69;40.61
68508;BME280;55510;49.560;19.090;2023-02-08T14:08:35;98808.44;;;5.39;40.99
68508;BME280;55510;49.560;19.090;2023-02-08T14:15:22;98810.72;;;4.49;42.66
68508;BME280;55510;49.560;19.090;2023-02-08T14:18:25;98807.72;;;4.25;43.72
68508;BME280;55510;49.560;19.090;2023-02-08T14:21:41;98807.78;;;3.95;43.87
68508;BME280;55510;49.560;19.090;2023-02-08T14:24:43;98805.88;;;3.68;44.54
68508;BME280;55510;49.560;19.090;2023-02-08T14:27:57;98806.28;;;3.33;45.74
68508;BME280;55510;49.560;19.090;2023-02-08T14:31:02;98810.53;;;3.05;45.96
68508;BME280;55510;49.560;19.090;2023-02-08T14:34:04;98806.59;;;2.80;46.80
68508;BME280;55510;49.560;19.090;2023-02-08T14:37:30;98805.84;;;2.37;48.05
68508;BME280;55510;49.560;19.090;2023-02-08T14:40:32;98799.56;;;1.97;49.27
68508;BME280;55510;49.560;19.090;2023-02-08T14:43:38;98809.44;;;1.51;50.00
68508;BME280;55510;49.560;19.090;2023-02-08T14:46:42;98802.78;;;1.14;51.55
68508;BME280;55510;49.560;19.090;2023-02-08T14:49:44;98800.69;;;0.74;52.57
68508;BME280;55510;49.560;19.090;2023-02-08T14:53:02;98797.03;;;0.42;53.86
68508;BME280;55510;49.560;19.090;2023-02-08T14:59:16;98813.47;;;-0.26;56.20
68508;BME280;55510;49.560;19.090;2023-02-08T15:02:20;98810.50;;;-0.57;57.51
68508;BME280;55510;49.560;19.090;2023-02-08T15:05:35;98808.00;;;-0.83;58.26
68508;BME280;55510;49.560;19.090;2023-02-08T15:08:37;98809.66;;;-1.06;59.63
68508;BME280;55510;49.560;19.090;2023-02-08T15:11:38;98809.50;;;-1.29;60.67
68508;BME280;55510;49.560;19.090;2023-02-08T15:14:41;98811.63;;;-1.47;61.15
68508;BME280;55510;49.560;19.090;2023-02-08T15:17:44;98813.72;;;-1.65;61.88
68508;BME280;55510;49.560;19.090;2023-02-08T15:21:02;98810.59;;;-1.83;62.72
68508;BME280;55510;49.560;19.090;2023-02-08T15:24:14;98813.00;;;-2.06;63.31
68508;BME280;55510;49.560;19.090;2023-02-08T15:27:22;98803.16;;;-2.28;64.73
68508;BME280;55510;49.560;19.090;2023-02-08T15:33:24;98803.63;;;-2.62;66.21
68508;BME280;55510;49.560;19.090;2023-02-08T15:36:33;98803.75;;;-2.78;67.09
68508;BME280;55510;49.560;19.090;2023-02-08T15:39:37;98804.72;;;-2.94;67.88
68508;BME280;55510;49.560;19.090;2023-02-08T15:42:42;98810.91;;;-3.09;68.97
68508;BME280;55510;49.560;19.090;2023-02-08T15:45:55;98814.56;;;-3.26;69.04
68508;BME280;55510;49.560;19.090;2023-02-08T15:48:58;98812.09;;;-3.42;70.15
68508;BME280;55510;49.560;19.090;2023-02-08T15:51:59;98814.34;;;-3.65;70.36
68508;BME280;55510;49.560;19.090;2023-02-08T15:55:07;98805.31;;;-3.88;71.85
68508;BME280;55510;49.560;19.090;2023-02-08T15:58:22;98808.06;;;-4.06;72.84
68508;BME280;55510;49.560;19.090;2023-02-08T16:01:28;98816.09;;;-4.25;73.33
68508;BME280;55510;49.560;19.090;2023-02-08T16:04:29;98825.81;;;-4.43;73.45
68508;BME280;55510;49.560;19.090;2023-02-08T16:07:33;98815.47;;;-4.59;74.79
68508;BME280;55510;49.560;19.090;2023-02-08T16:10:42;98817.34;;;-4.77;74.82
68508;BME280;55510;49.560;19.090;2023-02-08T16:13:47;98817.38;;;-5.10;76.30
68508;BME280;55510;49.560;19.090;2023-02-08T16:16:52;98824.31;;;-5.26;78.92
68508;BME280;55510;49.560;19.090;2023-02-08T16:19:53;98830.84;;;-5.35;79.00
68508;BME280;55510;49.560;19.090;2023-02-08T16:23:03;98829.66;;;-5.45;78.57
68508;BME280;55510;49.560;19.090;2023-02-08T16:26:23;98828.13;;;-5.65;79.38
68508;BME280;55510;49.560;19.090;2023-02-08T16:29:31;98830.50;;;-5.78;79.70
68508;BME280;55510;49.560;19.090;2023-02-08T16:32:34;98830.28;;;-5.91;81.58
68508;BME280;55510;49.560;19.090;2023-02-08T16:35:38;98832.44;;;-6.00;82.06
68508;BME280;55510;49.560;19.090;2023-02-08T16:38:39;98830.19;;;-6.06;82.43
68508;BME280;55510;49.560;19.090;2023-02-08T16:45:00;98835.00;;;-6.16;84.04
68508;BME280;55510;49.560;19.090;2023-02-08T16:48:01;98837.19;;;-6.26;84.53
68508;BME280;55510;49.560;19.090;2023-02-08T16:51:12;98850.47;;;-6.32;84.27
68508;BME280;55510;49.560;19.090;2023-02-08T16:54:18;98842.09;;;-6.37;84.83
68508;BME280;55510;49.560;19.090;2023-02-08T16:57:19;98840.41;;;-6.38;85.19
68508;BME280;55510;49.560;19.090;2023-02-08T17:00:30;98844.06;;;-6.42;86.26
68508;BME280;55510;49.560;19.090;2023-02-08T17:03:31;98838.78;;;-6.58;86.33
68508;BME280;55510;49.560;19.090;2023-02-08T17:06:35;98851.84;;;-6.60;86.92
68508;BME280;55510;49.560;19.090;2023-02-08T17:09:35;98850.72;;;-6.73;87.17
68508;BME280;55510;49.560;19.090;2023-02-08T17:12:38;98846.00;;;-6.82;87.63
68508;BME280;55510;49.560;19.090;2023-02-08T17:15:39;98848.88;;;-6.89;87.46
68508;BME280;55510;49.560;19.090;2023-02-08T17:18:46;98850.13;;;-6.97;88.07
68508;BME280;55510;49.560;19.090;2023-02-08T17:21:47;98858.75;;;-6.97;88.17
68508;BME280;55510;49.560;19.090;2023-02-08T17:24:47;98858.97;;;-7.21;88.49
68508;BME280;55510;49.560;19.090;2023-02-08T17:27:53;98865.84;;;-7.60;87.83
68508;BME280;55510;49.560;19.090;2023-02-08T17:30:55;98861.19;;;-7.91;88.04
68508;BME280;55510;49.560;19.090;2023-02-08T17:33:55;98865.31;;;-8.08;89.16
68508;BME280;55510;49.560;19.090;2023-02-08T17:37:04;98866.56;;;-8.17;89.68
68508;BME280;55510;49.560;19.090;2023-02-08T17:40:04;98871.38;;;-8.30;90.18
68508;BME280;55510;49.560;19.090;2023-02-08T17:43:05;98871.25;;;-8.26;90.90
68508;BME280;55510;49.560;19.090;2023-02-08T17:46:08;98868.59;;;-8.25;90.67
68508;BME280;55510;49.560;19.090;2023-02-08T17:49:10;98873.06;;;-8.28;90.34
68508;BME280;55510;49.560;19.090;2023-02-08T17:52:10;98869.94;;;-8.37;90.83
68508;BME280;55510;49.560;19.090;2023-02-08T17:55:13;98862.56;;;-8.46;90.67
68508;BME280;55510;49.560;19.090;2023-02-08T17:58:14;98872.34;;;-8.53;90.44
68508;BME280;55510;49.560;19.090;2023-02-08T18:01:17;98871.63;;;-8.56;90.89
68508;BME280;55510;49.560;19.090;2023-02-08T18:04:18;98867.06;;;-8.72;90.54